Time;durP1;ratioP1;P1;durP2;ratioP2;P2;SDS_P1;SDS_P2;PMS_P1;PMS_P2;Temp;Humidity;BMP_temperature;BMP_pressure;BME280_temperature;BME280_humidity;BME280_pressure;Samples;Min_cycle;Max_cycle;Signal;HPM_P1;HPM_P2
2022/03/13 00:00:59;;;;;;;14.15;11.50;;;10.20;69.70;;;;;;2075715;28;20037;-69
2022/03/13 00:01:59;;;;;;;15.82;11.27;;;10.10;69.40;;;;;;2076678;28;20022;-69
2022/03/13 00:03:04;;;;;;;13.70;11.13;;;10.10;69.60;;;;;;2080407;28;20029;-69
2022/03/13 00:04:05;;;;;;;13.25;11.50;;;10.10;69.60;;;;;;2075579;28;20525;-69
2022/03/13 00:05:16;;;;;;;12.63;11.15;;;10.10;69.60;;;;;;2081129;28;20394;-69
2022/03/13 00:06:32;;;;;;;18.48;11.43;;;10.10;69.30;;;;;;2078686;28;20402;-69
2022/03/13 00:07:34;;;;;;;13.50;11.35;;;10.10;69.30;;;;;;2074474;28;20028;-69
2022/03/13 00:08:34;;;;;;;16.67;11.90;;;10.00;69.20;;;;;;2074100;28;20068;-69
2022/03/13 00:09:35;;;;;;;14.95;10.73;;;10.00;69.30;;;;;;2077438;28;20037;-69
2022/03/13 00:10:36;;;;;;;16.45;11.07;;;10.00;69.60;;;;;;2080461;28;20025;-69
2022/03/13 00:11:37;;;;;;;15.38;10.98;;;10.00;69.80;;;;;;2082078;28;20021;-69
2022/03/13 00:12:38;;;;;;;13.00;10.93;;;10.00;69.80;;;;;;2076289;28;20076;-69
2022/03/13 00:13:48;;;;;;;15.00;10.85;;;10.00;69.30;;;;;;2077682;28;20067;-69
2022/03/13 00:14:49;;;;;;;14.52;11.10;;;10.00;69.30;;;;;;2078299;28;20025;-69
2022/03/13 00:15:52;;;;;;;13.35;10.90;;;10.00;69.60;;;;;;2076122;28;20508;-69
2022/03/13 00:16:53;;;;;;;13.32;11.10;;;10.00;69.60;;;;;;2077278;28;20022;-69
2022/03/13 00:17:55;;;;;;;13.85;11.52;;;10.00;69.20;;;;;;2079675;28;20036;-69
2022/03/13 00:18:59;;;;;;;14.57;11.00;;;10.00;69.00;;;;;;2073541;28;20022;-69
2022/03/13 00:20:02;;;;;;;12.90;10.95;;;10.00;69.10;;;;;;2078048;28;20021;-69
2022/03/13 00:21:03;;;;;;;14.80;11.40;;;10.00;69.00;;;;;;2076818;28;20041;-69
2022/03/13 00:22:05;;;;;;;12.70;10.18;;;10.00;69.20;;;;;;2077779;28;20083;-69
2022/03/13 00:23:06;;;;;;;12.45;10.52;;;9.90;69.00;;;;;;2077609;28;20017;-69
2022/03/13 00:24:07;;;;;;;12.85;10.93;;;9.90;68.70;;;;;;2075148;28;20423;-69
2022/03/13 00:25:09;;;;;;;14.20;11.27;;;10.00;68.60;;;;;;2076328;28;20086;-69
2022/03/13 00:26:11;;;;;;;14.60;11.10;;;9.90;68.20;;;;;;2081218;28;20013;-69
2022/03/13 00:27:11;;;;;;;14.60;10.95;;;9.90;68.20;;;;;;2081135;28;20461;-69
2022/03/13 00:28:12;;;;;;;12.10;10.35;;;9.90;68.20;;;;;;2078902;28;20376;-69
2022/03/13 00:29:13;;;;;;;12.98;11.18;;;9.90;68.00;;;;;;2081072;28;20021;-69
2022/03/13 00:30:15;;;;;;;13.75;11.23;;;9.90;67.50;;;;;;2073588;28;20064;-69
2022/03/13 00:31:15;;;;;;;13.90;11.45;;;10.00;67.60;;;;;;2079271;28;20022;-69
2022/03/13 00:32:16;;;;;;;14.35;11.10;;;9.90;67.60;;;;;;2077949;28;20037;-69
2022/03/13 00:33:17;;;;;;;12.07;10.80;;;9.90;66.80;;;;;;2077786;28;20033;-69
2022/03/13 00:34:18;;;;;;;15.32;11.13;;;9.90;67.00;;;;;;2077497;28;20033;-69
2022/03/13 00:35:19;;;;;;;14.38;10.88;;;9.90;66.80;;;;;;2081763;28;20025;-69
2022/03/13 00:36:19;;;;;;;14.05;11.07;;;9.90;67.00;;;;;;2080580;28;20103;-69
2022/03/13 00:37:20;;;;;;;13.68;11.90;;;9.90;66.90;;;;;;2078424;28;20079;-69
2022/03/13 00:38:22;;;;;;;14.20;10.93;;;9.90;66.80;;;;;;2074344;28;20030;-69
2022/03/13 00:39:22;;;;;;;14.20;10.95;;;9.90;66.30;;;;;;2077030;28;20030;-69
2022/03/13 00:40:23;;;;;;;14.30;10.27;;;9.90;66.10;;;;;;2076927;28;20110;-69
2022/03/13 00:41:24;;;;;;;15.52;10.80;;;9.90;65.40;;;;;;2078601;28;20037;-69
2022/03/13 00:42:24;;;;;;;14.15;11.05;;;9.80;65.30;;;;;;2075108;28;20026;-69
2022/03/13 00:43:27;;;;;;;12.75;10.77;;;9.90;66.00;;;;;;2078859;28;20045;-69
2022/03/13 00:44:28;;;;;;;12.75;10.82;;;9.90;65.00;;;;;;2078637;28;20030;-69
2022/03/13 00:45:29;;;;;;;12.43;10.68;;;9.80;64.80;;;;;;2075827;28;20705;-69
2022/03/13 00:46:29;;;;;;;12.32;10.75;;;9.80;64.90;;;;;;2077916;28;20059;-69
2022/03/13 00:47:30;;;;;;;11.98;9.35;;;9.80;63.90;;;;;;2079966;28;20038;-69
2022/03/13 00:48:31;;;;;;;14.98;10.80;;;9.80;64.00;;;;;;2073438;28;20176;-69
2022/03/13 00:49:32;;;;;;;17.23;10.00;;;9.80;64.00;;;;;;2079153;28;20558;-69
2022/03/13 00:50:32;;;;;;;13.60;10.02;;;9.80;63.50;;;;;;2080111;28;20029;-69
2022/03/13 00:51:33;;;;;;;15.60;10.65;;;9.80;63.30;;;;;;2074005;28;20034;-69
2022/03/13 00:52:34;;;;;;;12.50;9.88;;;9.80;62.80;;;;;;2075499;28;20092;-69
2022/03/13 00:53:34;;;;;;;12.52;10.43;;;9.80;62.90;;;;;;2078408;28;20030;-69
2022/03/13 00:54:35;;;;;;;13.25;10.88;;;9.80;62.90;;;;;;2076532;28;20084;-69
2022/03/13 00:55:35;;;;;;;11.45;9.82;;;9.80;62.80;;;;;;2075625;28;20057;-69
2022/03/13 00:56:36;;;;;;;12.52;10.57;;;9.80;62.60;;;;;;2074366;28;20034;-69
2022/03/13 00:57:36;;;;;;;11.35;10.15;;;9.80;61.50;;;;;;2073058;28;20053;-69
2022/03/13 00:58:40;;;;;;;13.70;9.95;;;9.80;61.20;;;;;;2075318;28;20040;-69
2022/03/13 00:59:41;;;;;;;12.23;10.18;;;9.80;60.90;;;;;;2080060;28;20532;-69
2022/03/13 01:00:42;;;;;;;11.50;10.15;;;9.80;60.80;;;;;;2077188;28;20434;-69
2022/03/13 01:01:42;;;;;;;16.45;10.30;;;9.80;61.10;;;;;;2074974;28;20022;-69
2022/03/13 01:02:43;;;;;;;12.38;10.32;;;9.80;61.00;;;;;;2078936;28;20021;-69
2022/03/13 01:03:44;;;;;;;11.93;9.68;;;9.80;60.90;;;;;;2072760;28;20382;-69
2022/03/13 01:04:44;;;;;;;12.32;10.18;;;9.80;60.50;;;;;;2077452;28;20048;-69
2022/03/13 01:05:45;;;;;;;12.25;9.80;;;9.80;60.50;;;;;;2077283;28;20028;-69
2022/03/13 01:06:46;;;;;;;14.85;10.10;;;9.70;60.40;;;;;;2080127;28;20020;-69
2022/03/13 01:07:46;;;;;;;13.60;10.48;;;9.80;60.50;;;;;;2079981;28;20021;-69
2022/03/13 01:08:48;;;;;;;11.25;9.63;;;9.70;60.10;;;;;;2077161;28;20457;-69
2022/03/13 01:09:49;;;;;;;11.73;10.10;;;9.70;60.00;;;;;;2080891;28;20040;-69
2022/03/13 01:10:50;;;;;;;11.90;9.60;;;9.70;59.90;;;;;;2080310;28;20049;-69
2022/03/13 01:11:51;;;;;;;12.43;10.65;;;9.70;59.70;;;;;;2076327;28;20026;-69
2022/03/13 01:12:52;;;;;;;12.77;9.90;;;9.70;59.80;;;;;;2079062;28;20136;-69
2022/03/13 01:13:53;;;;;;;12.85;10.02;;;9.70;60.00;;;;;;2078943;28;20580;-69
2022/03/13 01:14:54;;;;;;;12.20;9.90;;;9.70;59.70;;;;;;2074434;28;20034;-69
2022/03/13 01:16:00;;;;;;;11.32;9.85;;;9.70;59.50;;;;;;2079660;28;20025;-70
2022/03/13 01:17:10;;;;;;;11.55;10.27;;;9.60;59.10;;;;;;2076854;28;20028;-69
2022/03/13 01:18:11;;;;;;;15.77;9.77;;;9.60;59.30;;;;;;2077748;28;20047;-69
2022/03/13 01:19:11;;;;;;;11.20;9.93;;;9.60;59.40;;;;;;2076660;28;20025;-69
2022/03/13 01:20:18;;;;;;;12.55;10.02;;;9.60;59.40;;;;;;2074682;28;20068;-69
2022/03/13 01:21:19;;;;;;;15.77;9.85;;;9.60;59.40;;;;;;2077242;28;20028;-69
2022/03/13 01:22:20;;;;;;;12.23;10.57;;;9.50;59.70;;;;;;2077893;28;20025;-69
2022/03/13 01:23:21;;;;;;;12.70;10.43;;;9.50;60.10;;;;;;2081025;28;20049;-69
2022/03/13 01:24:31;;;;;;;13.35;9.70;;;9.50;60.40;;;;;;2078896;28;20052;-69
2022/03/13 01:25:31;;;;;;;10.93;9.68;;;9.50;59.20;;;;;;2076179;28;20069;-69
2022/03/13 01:26:36;;;;;;;10.85;9.35;;;9.50;59.10;;;;;;2077700;28;20052;-69
2022/03/13 01:27:37;;;;;;;13.40;10.20;;;9.50;59.30;;;;;;2076542;28;20026;-69
2022/03/13 01:28:37;;;;;;;13.18;9.98;;;9.50;59.20;;;;;;2082577;28;20044;-69
2022/03/13 01:29:38;;;;;;;12.52;9.65;;;9.40;59.20;;;;;;2084005;28;20097;-69
2022/03/13 01:30:39;;;;;;;12.05;10.05;;;9.40;59.60;;;;;;2077668;28;20080;-69
2022/03/13 01:31:44;;;;;;;14.82;9.85;;;9.40;59.90;;;;;;2078230;28;20075;-69
2022/03/13 01:32:52;;;;;;;11.95;10.25;;;9.40;59.80;;;;;;2080206;28;20038;-69
2022/03/13 01:33:53;;;;;;;12.75;10.30;;;9.40;59.80;;;;;;2078487;28;20030;-69
2022/03/13 01:34:54;;;;;;;14.07;10.30;;;9.40;60.00;;;;;;2076347;28;20091;-69
2022/03/13 01:35:54;;;;;;;14.82;9.50;;;9.30;60.20;;;;;;2080564;28;20108;-69
2022/03/13 01:36:55;;;;;;;10.98;9.85;;;9.30;60.50;;;;;;2082209;28;20379;-69
2022/03/13 01:37:57;;;;;;;12.70;10.25;;;9.30;60.40;;;;;;2079664;28;20044;-69
2022/03/13 01:39:01;;;;;;;14.27;9.45;;;9.30;60.20;;;;;;2078922;28;20374;-69
2022/03/13 01:40:09;;;;;;;13.43;9.50;;;9.30;60.50;;;;;;2075167;28;20026;-69
2022/03/13 01:41:10;;;;;;;11.98;9.10;;;9.30;60.20;;;;;;2080306;28;20070;-69
2022/03/13 01:42:11;;;;;;;12.35;10.25;;;9.20;60.00;;;;;;2080647;28;20087;-69
2022/03/13 01:43:11;;;;;;;11.57;10.38;;;9.20;60.40;;;;;;2077844;28;20100;-69
2022/03/13 01:44:12;;;;;;;10.52;8.98;;;9.10;59.60;;;;;;2078826;28;20028;-69
2022/03/13 01:45:17;;;;;;;11.75;9.68;;;9.10;59.30;;;;;;2076438;28;20030;-69
2022/03/13 01:46:17;;;;;;;11.93;10.18;;;9.10;59.30;;;;;;2078359;28;20060;-69
2022/03/13 01:47:18;;;;;;;13.88;10.30;;;9.10;59.50;;;;;;2078588;28;20037;-69
2022/03/13 01:48:19;;;;;;;12.07;9.63;;;9.10;59.50;;;;;;2080922;28;20017;-69
2022/03/13 01:49:20;;;;;;;12.70;10.55;;;9.10;59.40;;;;;;2079112;28;20025;-69
2022/03/13 01:50:20;;;;;;;13.35;10.25;;;9.00;59.40;;;;;;2078375;28;20014;-69
2022/03/13 01:51:22;;;;;;;12.07;10.00;;;9.00;59.20;;;;;;2074922;28;20018;-69
2022/03/13 01:52:26;;;;;;;11.50;9.77;;;9.00;58.80;;;;;;2079985;28;20543;-69
2022/03/13 01:53:27;;;;;;;11.40;9.43;;;9.00;58.70;;;;;;2077186;28;20390;-69
2022/03/13 01:54:30;;;;;;;11.88;9.32;;;8.90;58.80;;;;;;2079054;28;20061;-69
2022/03/13 01:55:31;;;;;;;10.90;9.00;;;8.90;58.60;;;;;;2079481;28;20493;-69
2022/03/13 01:56:34;;;;;;;13.65;9.90;;;8.90;58.30;;;;;;2073801;28;20394;-69
2022/03/13 01:57:37;;;;;;;12.65;10.05;;;8.90;58.40;;;;;;2073936;28;20549;-69
2022/03/13 01:58:37;;;;;;;14.05;10.25;;;8.90;58.30;;;;;;2075311;28;20034;-69
2022/03/13 01:59:38;;;;;;;11.40;9.48;;;8.90;59.00;;;;;;2080736;28;20103;-69
2022/03/13 02:00:38;;;;;;;10.18;8.82;;;8.90;59.10;;;;;;2081960;28;20068;-69
2022/03/13 02:01:39;;;;;;;11.20;9.20;;;8.80;58.50;;;;;;2078251;28;20032;-69
2022/03/13 02:02:45;;;;;;;13.43;10.20;;;8.80;58.40;;;;;;2079323;28;20164;-69
2022/03/13 02:03:46;;;;;;;12.50;10.60;;;8.80;58.10;;;;;;2078820;28;20029;-69
2022/03/13 02:04:54;;;;;;;13.55;10.05;;;8.80;58.20;;;;;;2077205;28;20052;-69
2022/03/13 02:05:54;;;;;;;11.85;10.15;;;8.80;57.90;;;;;;2080503;28;20457;-69
2022/03/13 02:06:56;;;;;;;13.43;9.88;;;8.80;57.90;;;;;;2077153;28;20375;-69
2022/03/13 02:07:59;;;;;;;12.65;9.93;;;8.80;57.80;;;;;;2080048;28;20491;-69
2022/03/13 02:08:59;;;;;;;12.68;10.73;;;8.80;57.90;;;;;;2076505;28;20437;-69
2022/03/13 02:10:00;;;;;;;11.25;9.65;;;8.80;58.50;;;;;;2080430;28;20021;-69
2022/03/13 02:11:00;;;;;;;13.25;10.20;;;8.80;57.50;;;;;;2081673;28;20429;-69
2022/03/13 02:12:03;;;;;;;11.30;9.88;;;8.80;57.20;;;;;;2078038;28;20017;-69
2022/03/13 02:13:04;;;;;;;10.90;9.75;;;8.80;57.50;;;;;;2073397;28;20045;-69
2022/03/13 02:14:05;;;;;;;13.73;9.57;;;8.80;56.80;;;;;;2078920;28;20026;-69
2022/03/13 02:15:06;;;;;;;12.48;9.93;;;8.80;56.80;;;;;;2075540;28;20017;-69
2022/03/13 02:16:07;;;;;;;11.65;9.40;;;8.80;56.60;;;;;;2080328;28;20026;-69
2022/03/13 02:17:08;;;;;;;13.60;10.23;;;8.80;56.60;;;;;;2078892;28;20026;-69
2022/03/13 02:18:09;;;;;;;13.35;9.32;;;8.80;56.20;;;;;;2081500;28;20021;-69
2022/03/13 02:19:10;;;;;;;11.82;9.57;;;8.80;56.00;;;;;;2080344;28;20025;-69
2022/03/13 02:20:21;;;;;;;13.02;10.18;;;8.80;55.80;;;;;;2077046;28;20108;-69
2022/03/13 02:21:28;;;;;;;11.90;9.68;;;8.80;55.30;;;;;;2078494;28;20033;-69
2022/03/13 02:22:29;;;;;;;11.18;9.77;;;8.80;55.10;;;;;;2078980;28;20083;-69
2022/03/13 02:23:30;;;;;;;11.27;9.25;;;8.80;55.30;;;;;;2078758;28;20112;-69
2022/03/13 02:24:31;;;;;;;16.15;10.32;;;8.80;55.10;;;;;;2081704;28;20494;-69
2022/03/13 02:25:34;;;;;;;12.20;9.65;;;8.80;54.90;;;;;;2077464;28;20026;-69
2022/03/13 02:26:35;;;;;;;12.73;9.43;;;8.80;54.90;;;;;;2080647;28;20033;-69
2022/03/13 02:27:36;;;;;;;14.85;10.63;;;8.80;55.00;;;;;;2080375;28;20107;-69
2022/03/13 02:28:42;;;;;;;11.90;10.40;;;8.80;54.50;;;;;;2078202;28;20100;-69
2022/03/13 02:29:42;;;;;;;11.65;9.75;;;8.80;54.40;;;;;;2076887;28;20103;-69
2022/03/13 02:30:43;;;;;;;12.38;9.70;;;8.80;54.40;;;;;;2074973;28;20026;-69
2022/03/13 02:31:44;;;;;;;11.35;9.60;;;8.80;54.60;;;;;;2079724;28;20153;-69
2022/03/13 02:32:44;;;;;;;12.05;9.98;;;8.80;54.40;;;;;;2083786;28;20216;-69
2022/03/13 02:33:45;;;;;;;12.45;10.18;;;8.80;54.40;;;;;;2078501;28;20017;-69
2022/03/13 02:34:47;;;;;;;11.80;10.07;;;8.90;54.50;;;;;;2080165;28;20071;-69
2022/03/13 02:36:24;;;;;;;13.93;10.10;;;8.90;54.30;;;;;;2077947;28;20025;-69
2022/03/13 02:37:41;;;;;;;14.35;10.23;;;8.80;53.50;;;;;;2064858;28;20037;-69
2022/03/13 02:38:41;;;;;;;11.85;9.73;;;8.80;53.60;;;;;;2075995;28;20061;-69
2022/03/13 02:39:42;;;;;;;13.85;9.90;;;8.80;54.20;;;;;;2081439;28;20077;-69
2022/03/13 02:40:42;;;;;;;11.77;10.07;;;8.80;54.40;;;;;;2079246;28;20119;-69
2022/03/13 02:41:43;;;;;;;13.00;10.32;;;8.90;54.80;;;;;;2080394;28;20029;-69
2022/03/13 02:42:44;;;;;;;13.65;9.75;;;8.90;55.00;;;;;;2077375;28;20026;-69
2022/03/13 02:43:45;;;;;;;13.23;10.23;;;8.80;54.80;;;;;;2079423;28;20037;-69
2022/03/13 02:44:46;;;;;;;13.20;9.95;;;8.80;54.30;;;;;;2079587;28;20021;-69
2022/03/13 02:45:46;;;;;;;15.63;10.68;;;8.80;54.40;;;;;;2076168;28;20021;-69
2022/03/13 02:46:49;;;;;;;13.68;9.38;;;8.80;54.30;;;;;;2075166;28;20032;-69
2022/03/13 02:47:50;;;;;;;11.93;10.13;;;8.80;54.30;;;;;;2083363;28;20083;-69
2022/03/13 02:48:51;;;;;;;16.35;10.32;;;8.80;54.40;;;;;;2081123;28;20096;-69
2022/03/13 02:49:52;;;;;;;15.43;10.10;;;8.80;54.70;;;;;;2072157;28;20053;-69
2022/03/13 02:50:52;;;;;;;13.80;11.02;;;8.80;54.80;;;;;;2075440;28;20017;-69
2022/03/13 02:51:55;;;;;;;13.40;10.77;;;8.80;54.80;;;;;;2073807;28;20014;-69
2022/03/13 02:52:56;;;;;;;12.73;9.98;;;8.80;54.80;;;;;;2074300;28;20069;-69
2022/03/13 02:53:56;;;;;;;12.77;10.07;;;8.80;54.80;;;;;;2076312;28;20025;-69
2022/03/13 02:54:57;;;;;;;14.00;10.25;;;8.80;54.90;;;;;;2079989;28;20013;-69
2022/03/13 02:55:58;;;;;;;13.30;10.00;;;8.80;55.00;;;;;;2073271;28;20056;-69
2022/03/13 02:56:59;;;;;;;16.42;10.43;;;8.80;55.20;;;;;;2072788;28;20097;-69
2022/03/13 02:57:59;;;;;;;13.95;9.85;;;8.80;55.30;;;;;;2074504;28;20038;-69
2022/03/13 02:59:00;;;;;;;13.70;10.77;;;8.80;55.30;;;;;;2076890;28;20018;-69
2022/03/13 03:00:01;;;;;;;13.35;10.80;;;8.80;55.60;;;;;;2077136;28;20018;-69
2022/03/13 03:01:02;;;;;;;12.48;10.45;;;8.70;55.50;;;;;;2080411;28;20428;-69
2022/03/13 03:02:03;;;;;;;11.70;10.50;;;8.70;55.50;;;;;;2076753;28;20052;-69
2022/03/13 03:03:04;;;;;;;15.57;10.80;;;8.70;55.60;;;;;;2080862;28;20029;-69
2022/03/13 03:04:05;;;;;;;14.25;11.05;;;8.70;55.80;;;;;;2080472;28;20032;-69
2022/03/13 03:05:07;;;;;;;13.35;10.95;;;8.60;55.60;;;;;;2082616;28;20025;-69
2022/03/13 03:06:12;;;;;;;12.00;10.18;;;8.60;55.80;;;;;;2081029;28;20453;-69
2022/03/13 03:07:13;;;;;;;11.52;10.30;;;8.60;55.70;;;;;;2078937;28;20025;-69
2022/03/13 03:08:14;;;;;;;14.82;10.48;;;8.60;55.60;;;;;;2074899;28;20033;-69
2022/03/13 03:09:17;;;;;;;13.50;10.15;;;8.50;55.40;;;;;;2073752;28;20462;-69
2022/03/13 03:10:18;;;;;;;14.80;10.65;;;8.50;55.30;;;;;;2078735;28;20032;-69
2022/03/13 03:11:18;;;;;;;13.55;10.65;;;8.50;55.40;;;;;;2084072;28;20112;-69
2022/03/13 03:12:19;;;;;;;13.88;10.55;;;8.50;55.30;;;;;;2078123;28;20018;-69
2022/03/13 03:13:20;;;;;;;13.45;10.82;;;8.50;55.30;;;;;;2082254;28;20526;-69
2022/03/13 03:14:21;;;;;;;16.77;10.35;;;8.50;55.50;;;;;;2082839;28;20390;-69
2022/03/13 03:15:23;;;;;;;12.27;10.45;;;8.50;55.60;;;;;;2080744;28;20018;-69
2022/03/13 03:16:23;;;;;;;12.98;10.05;;;8.40;55.60;;;;;;2074067;28;20026;-69
2022/03/13 03:17:24;;;;;;;11.35;9.88;;;8.40;55.70;;;;;;2076720;28;20531;-69
2022/03/13 03:18:25;;;;;;;14.45;10.18;;;8.40;55.90;;;;;;2078198;28;20034;-69
2022/03/13 03:19:26;;;;;;;13.70;10.27;;;8.40;55.80;;;;;;2083150;28;20478;-69
2022/03/13 03:20:27;;;;;;;12.52;10.50;;;8.40;56.00;;;;;;2075391;28;20482;-69
2022/03/13 03:21:28;;;;;;;13.15;10.45;;;8.40;55.90;;;;;;2081037;28;20463;-69
2022/03/13 03:22:30;;;;;;;14.73;10.52;;;8.40;55.50;;;;;;2078219;28;20029;-69
2022/03/13 03:23:31;;;;;;;14.35;10.25;;;8.40;55.80;;;;;;2073952;28;20040;-69
2022/03/13 03:24:32;;;;;;;13.90;9.57;;;8.40;55.80;;;;;;2078092;28;20114;-69
2022/03/13 03:25:33;;;;;;;13.20;10.30;;;8.40;55.90;;;;;;2073790;28;20038;-69
2022/03/13 03:26:33;;;;;;;13.18;10.18;;;8.40;55.80;;;;;;2078517;28;20034;-69
2022/03/13 03:27:34;;;;;;;15.43;10.40;;;8.40;55.40;;;;;;2081497;28;20033;-69
2022/03/13 03:28:34;;;;;;;18.45;11.15;;;8.40;55.60;;;;;;2080426;28;20032;-69
2022/03/13 03:29:35;;;;;;;14.65;10.20;;;8.30;55.80;;;;;;2073294;28;20026;-69
2022/03/13 03:30:36;;;;;;;13.45;10.95;;;8.30;56.10;;;;;;2079880;28;20436;-69
2022/03/13 03:31:40;;;;;;;13.13;10.45;;;8.30;56.40;;;;;;2078593;28;20044;-69
2022/03/13 03:32:41;;;;;;;12.63;10.07;;;8.30;56.30;;;;;;2075209;28;20026;-69
2022/03/13 03:33:42;;;;;;;15.18;10.25;;;8.30;56.30;;;;;;2075415;28;20032;-69
2022/03/13 03:34:43;;;;;;;14.75;10.45;;;8.30;56.10;;;;;;2076671;28;20031;-69
2022/03/13 03:35:43;;;;;;;11.52;9.95;;;8.30;55.90;;;;;;2077937;28;20454;-69
2022/03/13 03:36:47;;;;;;;16.13;10.93;;;8.30;56.20;;;;;;2080868;28;20120;-69
2022/03/13 03:37:49;;;;;;;12.18;9.80;;;8.30;56.30;;;;;;2080611;28;20067;-69
2022/03/13 03:38:50;;;;;;;12.40;9.45;;;8.30;56.10;;;;;;2077609;28;20017;-69
2022/03/13 03:39:51;;;;;;;12.70;10.27;;;8.30;56.50;;;;;;2079752;28;20033;-69
2022/03/13 03:40:51;;;;;;;11.40;9.68;;;8.20;56.20;;;;;;2078002;28;20545;-69
2022/03/13 03:41:53;;;;;;;15.15;9.75;;;8.20;56.30;;;;;;2072709;28;20097;-69
2022/03/13 03:43:02;;;;;;;11.85;9.88;;;8.20;56.60;;;;;;2074135;28;20029;-69
2022/03/13 03:44:03;;;;;;;11.70;10.40;;;8.20;57.00;;;;;;2073684;28;20645;-69
2022/03/13 03:45:04;;;;;;;12.50;10.57;;;8.20;57.60;;;;;;2080871;28;20465;-69
2022/03/13 03:46:05;;;;;;;10.85;9.55;;;8.20;58.00;;;;;;2075192;28;20026;-69
2022/03/13 03:47:06;;;;;;;13.25;10.95;;;8.10;57.80;;;;;;2079518;28;20113;-69
2022/03/13 03:48:06;;;;;;;11.23;9.45;;;8.10;57.60;;;;;;2075788;28;20018;-69
2022/03/13 03:49:07;;;;;;;11.27;9.65;;;8.10;57.80;;;;;;2077822;28;20017;-69
2022/03/13 03:50:08;;;;;;;15.35;10.45;;;8.10;58.10;;;;;;2078827;28;20100;-69
2022/03/13 03:51:09;;;;;;;14.63;11.02;;;8.10;58.10;;;;;;2080130;28;20401;-69
2022/03/13 03:52:09;;;;;;;13.93;10.35;;;8.10;58.10;;;;;;2081068;28;20351;-69
2022/03/13 03:53:10;;;;;;;10.80;9.27;;;8.00;58.00;;;;;;2074444;28;20034;-69
2022/03/13 03:54:12;;;;;;;15.50;10.52;;;8.00;58.00;;;;;;2080369;28;20055;-69
2022/03/13 03:55:13;;;;;;;10.77;9.63;;;8.00;57.80;;;;;;2072704;28;20030;-69
2022/03/13 03:56:14;;;;;;;14.07;11.13;;;8.00;57.70;;;;;;2076037;28;20029;-69
2022/03/13 03:57:14;;;;;;;12.70;10.60;;;8.00;57.40;;;;;;2072645;28;20057;-69
2022/03/13 03:58:15;;;;;;;11.80;9.93;;;8.00;57.00;;;;;;2075743;28;20108;-69
2022/03/13 03:59:15;;;;;;;11.70;10.07;;;7.90;57.50;;;;;;2081292;28;20525;-69
2022/03/13 04:00:16;;;;;;;12.43;9.57;;;7.90;57.80;;;;;;2075737;28;20062;-69
2022/03/13 04:01:17;;;;;;;12.73;10.25;;;7.90;58.10;;;;;;2079744;28;20021;-69
2022/03/13 04:02:18;;;;;;;12.38;10.23;;;7.80;58.70;;;;;;2077868;28;20021;-69
2022/03/13 04:03:18;;;;;;;11.07;9.45;;;7.80;58.80;;;;;;2073997;28;20478;-69
2022/03/13 04:04:19;;;;;;;12.35;9.88;;;7.80;59.10;;;;;;2075132;28;20454;-69
2022/03/13 04:05:19;;;;;;;12.65;10.13;;;7.80;59.40;;;;;;2076330;28;20402;-69
2022/03/13 04:06:20;;;;;;;11.77;10.43;;;7.80;59.50;;;;;;2076956;28;20076;-69
2022/03/13 04:07:21;;;;;;;14.20;10.52;;;7.80;59.50;;;;;;2077413;28;20017;-69
2022/03/13 04:08:21;;;;;;;13.90;9.07;;;7.80;59.60;;;;;;2082582;28;20021;-69
2022/03/13 04:09:22;;;;;;;11.57;10.23;;;7.70;59.80;;;;;;2077121;28;20029;-69
2022/03/13 04:10:22;;;;;;;13.02;11.25;;;7.70;59.90;;;;;;2080241;28;20112;-69
2022/03/13 04:11:23;;;;;;;13.80;10.80;;;7.70;59.90;;;;;;2078961;28;20571;-69
2022/03/13 04:12:25;;;;;;;14.07;10.30;;;7.70;60.00;;;;;;2076269;28;20109;-69
2022/03/13 04:13:28;;;;;;;13.30;10.27;;;7.60;60.10;;;;;;2076668;28;20026;-69
2022/03/13 04:14:29;;;;;;;11.98;9.45;;;7.60;60.10;;;;;;2074152;28;20056;-69
2022/03/13 04:15:29;;;;;;;12.02;9.63;;;7.60;60.20;;;;;;2079225;28;20030;-68
2022/03/13 04:16:30;;;;;;;13.45;9.70;;;7.60;60.40;;;;;;2074554;28;20109;-69
2022/03/13 04:17:31;;;;;;;15.40;10.73;;;7.60;60.60;;;;;;2075922;28;20474;-69
2022/03/13 04:18:33;;;;;;;12.25;10.40;;;7.50;60.40;;;;;;2081822;28;20108;-69
2022/03/13 04:19:34;;;;;;;12.10;9.80;;;7.50;60.50;;;;;;2077311;28;20038;-69
2022/03/13 04:20:34;;;;;;;10.18;9.18;;;7.50;60.70;;;;;;2078853;28;20065;-69
2022/03/13 04:21:39;;;;;;;11.73;10.32;;;7.40;60.80;;;;;;2077778;28;20036;-69
2022/03/13 04:22:40;;;;;;;12.30;9.82;;;7.40;60.90;;;;;;2078308;28;20057;-69
2022/03/13 04:23:41;;;;;;;13.32;11.00;;;7.40;61.00;;;;;;2080413;28;20540;-69
2022/03/13 04:24:42;;;;;;;12.32;10.13;;;7.40;61.30;;;;;;2079228;28;20038;-69
2022/03/13 04:25:43;;;;;;;10.98;9.80;;;7.30;61.20;;;;;;2077744;28;20034;-69
2022/03/13 04:26:44;;;;;;;14.07;10.52;;;7.30;61.40;;;;;;2078364;28;20040;-69
2022/03/13 04:27:44;;;;;;;12.07;10.27;;;7.30;61.40;;;;;;2075202;28;20022;-69
2022/03/13 04:28:45;;;;;;;12.35;10.80;;;7.30;61.50;;;;;;2076842;28;20032;-69
2022/03/13 04:29:45;;;;;;;13.00;10.35;;;7.20;61.40;;;;;;2078010;28;20476;-69
2022/03/13 04:30:49;;;;;;;13.95;10.45;;;7.20;61.50;;;;;;2079075;28;20021;-69
2022/03/13 04:31:52;;;;;;;13.35;11.73;;;7.10;61.70;;;;;;2078322;28;20056;-69
2022/03/13 04:32:54;;;;;;;12.82;10.38;;;7.10;61.70;;;;;;2080909;28;20021;-69
2022/03/13 04:33:55;;;;;;;11.30;9.85;;;7.10;61.90;;;;;;2079631;28;20025;-69
2022/03/13 04:34:55;;;;;;;13.45;10.70;;;7.10;62.10;;;;;;2079156;28;20108;-69
2022/03/13 04:35:58;;;;;;;14.57;10.57;;;7.00;62.00;;;;;;2077596;28;20458;-69
2022/03/13 04:37:00;;;;;;;10.85;9.32;;;7.00;62.10;;;;;;2079933;28;20009;-69
2022/03/13 04:38:01;;;;;;;11.90;10.35;;;7.00;62.30;;;;;;2077132;28;20074;-69
2022/03/13 04:39:03;;;;;;;13.65;11.00;;;7.00;62.40;;;;;;2080321;28;20021;-69
2022/03/13 04:40:04;;;;;;;12.38;10.20;;;6.90;62.40;;;;;;2081997;28;20094;-69
2022/03/13 04:41:04;;;;;;;11.80;10.05;;;6.90;62.50;;;;;;2079104;28;20679;-68
2022/03/13 04:42:06;;;;;;;12.73;10.82;;;6.90;62.60;;;;;;2079277;28;20422;-69
2022/03/13 04:43:08;;;;;;;12.95;11.13;;;6.90;62.60;;;;;;2074043;28;20022;-69
2022/03/13 04:44:12;;;;;;;12.80;10.43;;;6.90;62.60;;;;;;2079573;28;20109;-69
2022/03/13 04:45:13;;;;;;;12.98;11.07;;;6.80;62.50;;;;;;2075363;28;20604;-69
2022/03/13 04:46:15;;;;;;;14.27;11.32;;;6.80;62.70;;;;;;2078485;28;20711;-69
2022/03/13 04:47:15;;;;;;;14.23;10.45;;;6.80;62.80;;;;;;2082568;28;20060;-69
2022/03/13 04:48:17;;;;;;;14.05;11.13;;;6.70;62.80;;;;;;2074766;28;20072;-69
2022/03/13 04:49:17;;;;;;;15.45;11.02;;;6.70;62.90;;;;;;2079941;28;20014;-68
2022/03/13 04:50:18;;;;;;;16.63;12.02;;;6.70;63.10;;;;;;2073526;28;20028;-69
2022/03/13 04:51:20;;;;;;;12.82;10.50;;;6.70;63.20;;;;;;2074020;28;20029;-69
2022/03/13 04:52:20;;;;;;;12.00;10.48;;;6.70;63.40;;;;;;2076497;28;20459;-69
2022/03/13 04:53:21;;;;;;;11.85;9.35;;;6.60;63.40;;;;;;2075805;28;20378;-69
2022/03/13 04:54:21;;;;;;;13.40;11.10;;;6.60;63.60;;;;;;2080133;28;20057;-69
2022/03/13 04:55:22;;;;;;;12.80;10.40;;;6.60;63.60;;;;;;2078647;28;20022;-69
2022/03/13 04:56:22;;;;;;;14.13;10.98;;;6.60;63.70;;;;;;2072270;28;20034;-69
2022/03/13 04:57:23;;;;;;;13.25;10.35;;;6.50;63.70;;;;;;2073580;28;20030;-69
2022/03/13 04:58:24;;;;;;;13.50;11.30;;;6.50;63.80;;;;;;2076222;28;20045;-69
2022/03/13 04:59:25;;;;;;;12.98;11.02;;;6.50;63.90;;;;;;2073808;28;20034;-69
2022/03/13 05:00:27;;;;;;;11.88;10.48;;;6.50;64.10;;;;;;2079098;28;20025;-69
2022/03/13 05:01:27;;;;;;;14.98;11.38;;;6.50;64.10;;;;;;2078217;28;20699;-69
2022/03/13 05:02:28;;;;;;;14.98;11.23;;;6.40;64.10;;;;;;2077684;28;20052;-69
2022/03/13 05:03:33;;;;;;;14.63;11.00;;;6.40;64.10;;;;;;2077680;28;20634;-69
2022/03/13 05:04:33;;;;;;;12.38;9.52;;;6.40;64.30;;;;;;2080457;28;20029;-69
2022/03/13 05:05:34;;;;;;;11.90;10.45;;;6.40;64.40;;;;;;2082051;28;20028;-69
2022/03/13 05:06:36;;;;;;;12.63;11.32;;;6.30;64.50;;;;;;2080690;28;20049;-69
2022/03/13 05:07:38;;;;;;;10.90;9.73;;;6.30;64.80;;;;;;2080088;28;20037;-69
2022/03/13 05:08:40;;;;;;;13.35;9.82;;;6.30;64.90;;;;;;2077284;28;20100;-69
2022/03/13 05:09:40;;;;;;;16.70;11.32;;;6.30;65.00;;;;;;2077698;28;20021;-69
2022/03/13 05:10:43;;;;;;;11.35;10.05;;;6.30;65.20;;;;;;2076495;28;20026;-68
2022/03/13 05:11:44;;;;;;;14.95;11.07;;;6.20;65.30;;;;;;2080193;28;20112;-68
2022/03/13 05:12:45;;;;;;;13.02;11.60;;;6.20;65.40;;;;;;2082059;28;20025;-69
2022/03/13 05:13:45;;;;;;;14.32;11.18;;;6.20;65.40;;;;;;2080934;28;20033;-69
2022/03/13 05:14:46;;;;;;;14.65;11.15;;;6.20;65.60;;;;;;2079836;28;20025;-69
2022/03/13 05:15:47;;;;;;;12.43;10.25;;;6.20;65.80;;;;;;2078533;28;20104;-69
2022/03/13 05:16:47;;;;;;;13.55;10.95;;;6.10;65.80;;;;;;2076178;28;20029;-69
2022/03/13 05:17:48;;;;;;;14.90;10.85;;;6.10;65.90;;;;;;2072687;28;20038;-68